createdAt,value
2018-04-26T00:02:15.249Z,10.80
2018-04-26T00:04:41.696Z,10.80
2018-04-26T00:07:08.618Z,10.80
2018-04-26T00:09:34.818Z,10.80
2018-04-26T00:12:01.024Z,10.80
2018-04-26T00:14:27.209Z,10.80
2018-04-26T00:16:54.141Z,11.00
2018-04-26T00:19:20.320Z,11.00
2018-04-26T00:21:46.529Z,11.00
2018-04-26T00:24:12.677Z,11.10
2018-04-26T00:26:38.870Z,11.10
2018-04-26T00:29:05.037Z,11.20
2018-04-26T00:31:31.223Z,11.20
2018-04-26T00:33:57.400Z,11.20
2018-04-26T00:36:23.603Z,11.20
2018-04-26T00:38:49.770Z,11.20
2018-04-26T00:41:15.956Z,11.10
2018-04-26T00:43:42.119Z,11.10
2018-04-26T00:46:08.280Z,11.10
2018-04-26T00:48:35.195Z,11.10
2018-04-26T00:51:01.381Z,11.10
2018-04-26T00:53:27.557Z,11.00
2018-04-26T00:55:53.732Z,10.90
2018-04-26T00:58:19.905Z,11.00
2018-04-26T01:00:46.085Z,11.00
2018-04-26T01:03:12.277Z,11.00
2018-04-26T01:05:39.193Z,10.90
2018-04-26T01:08:05.394Z,10.90
2018-04-26T01:10:31.569Z,10.90
2018-04-26T01:12:58.513Z,10.80
2018-04-26T01:15:25.417Z,10.80
2018-04-26T01:17:51.599Z,10.80
2018-04-26T01:20:17.769Z,10.80
2018-04-26T01:22:43.942Z,10.80
2018-04-26T01:25:10.127Z,10.70
2018-04-26T01:27:36.340Z,10.70
2018-04-26T01:30:02.640Z,10.70
2018-04-26T01:32:28.842Z,10.70
2018-04-26T01:34:55.796Z,10.70
2018-04-26T01:37:34.928Z,10.70
2018-04-26T01:40:01.872Z,10.80
2018-04-26T01:42:28.023Z,10.70
2018-04-26T01:44:54.202Z,10.80
2018-04-26T01:47:20.357Z,10.80
2018-04-26T01:49:46.530Z,10.80
2018-04-26T01:52:12.709Z,10.80
2018-04-26T01:54:39.626Z,10.80
2018-04-26T01:57:05.793Z,10.80
2018-04-26T01:59:31.978Z,10.80
2018-04-26T02:01:58.146Z,10.80
2018-04-26T02:04:24.330Z,10.80
2018-04-26T02:06:50.509Z,10.70
2018-04-26T02:09:16.700Z,10.70
2018-04-26T02:14:16.407Z,10.70
2018-04-26T02:16:42.585Z,10.60
2018-04-26T02:19:08.752Z,10.70
2018-04-26T02:21:34.945Z,10.70
2018-04-26T02:24:01.109Z,10.60
2018-04-26T02:26:27.329Z,10.60
2018-04-26T02:28:53.488Z,10.60
2018-04-26T02:31:20.413Z,10.60
2018-04-26T02:33:46.615Z,10.60
2018-04-26T02:36:12.819Z,10.60
2018-04-26T02:38:38.985Z,10.60
2018-04-26T02:41:05.174Z,10.60
2018-04-26T02:43:31.329Z,10.60
2018-04-26T02:45:57.513Z,10.60
2018-04-26T02:48:23.693Z,10.50
2018-04-26T02:50:49.876Z,10.50
2018-04-26T02:53:16.026Z,10.60
2018-04-26T02:55:42.217Z,10.60
2018-04-26T02:58:08.383Z,10.60
2018-04-26T03:00:34.560Z,10.60
2018-04-26T03:03:00.733Z,10.60
2018-04-26T03:05:26.934Z,10.60
2018-04-26T03:07:53.110Z,10.60
2018-04-26T03:10:19.287Z,10.50
2018-04-26T03:12:45.565Z,10.50
2018-04-26T03:15:11.745Z,10.50
2018-04-26T03:17:37.940Z,10.40
2018-04-26T03:20:04.867Z,10.40
2018-04-26T03:22:31.797Z,10.40
2018-04-26T03:24:57.986Z,10.40
2018-04-26T03:27:24.210Z,10.40
2018-04-26T03:29:50.360Z,10.40
2018-04-26T03:32:16.548Z,10.40
2018-04-26T03:34:42.728Z,10.40
2018-04-26T03:37:08.918Z,10.50
2018-04-26T03:39:35.116Z,10.50
2018-04-26T03:42:01.320Z,10.50
2018-04-26T03:44:27.497Z,10.50
2018-04-26T03:46:53.685Z,10.50
2018-04-26T03:49:19.843Z,10.50
2018-04-26T03:51:46.078Z,10.50
2018-04-26T03:54:12.362Z,10.50
2018-04-26T03:56:38.521Z,10.50
2018-04-26T03:59:04.721Z,10.50
2018-04-26T04:01:43.858Z,10.50
2018-04-26T04:04:22.969Z,10.50
2018-04-26T04:06:49.133Z,10.50
2018-04-26T04:09:15.348Z,10.40
2018-04-26T04:11:41.501Z,10.40
2018-04-26T04:14:07.665Z,10.40
2018-04-26T04:16:33.817Z,10.40
2018-04-26T04:19:00.728Z,10.30
2018-04-26T04:21:26.888Z,10.30
2018-04-26T04:23:53.807Z,10.30
2018-04-26T04:26:20.013Z,10.30
2018-04-26T04:28:46.221Z,10.40
2018-04-26T04:31:12.377Z,10.40
2018-04-26T04:33:38.608Z,10.30
2018-04-26T04:36:04.776Z,10.00
2018-04-26T04:38:30.942Z,10.00
2018-04-26T04:40:57.132Z,10.00
2018-04-26T04:43:23.344Z,10.00
2018-04-26T04:45:49.513Z,10.00
2018-04-26T04:48:15.725Z,10.00
2018-04-26T04:50:41.945Z,10.00
2018-04-26T04:53:08.646Z,10.00
2018-04-26T04:55:34.834Z,10.00
2018-04-26T04:58:00.996Z,10.00
2018-04-26T05:00:27.174Z,10.00
2018-04-26T05:02:53.351Z,10.10
2018-04-26T05:05:19.733Z,10.10
2018-04-26T05:07:45.930Z,10.10
2018-04-26T05:10:12.121Z,10.10
2018-04-26T05:12:38.318Z,10.10
2018-04-26T05:15:04.643Z,10.10
2018-04-26T05:17:30.854Z,10.10
2018-04-26T05:19:57.046Z,10.00
2018-04-26T05:22:23.230Z,9.90
2018-04-26T05:24:49.446Z,9.90
2018-04-26T05:27:15.616Z,9.90
2018-04-26T05:29:41.770Z,9.90
2018-04-26T05:32:08.698Z,9.80
2018-04-26T05:34:34.892Z,9.80
2018-04-26T05:37:01.103Z,9.80
2018-04-26T05:39:27.270Z,9.70
2018-04-26T05:41:53.466Z,9.70
2018-04-26T05:44:19.661Z,9.80
2018-04-26T05:46:46.274Z,9.80
2018-04-26T05:49:12.951Z,9.90
2018-04-26T05:51:41.567Z,10.10
2018-04-26T05:54:08.081Z,10.30
2018-04-26T05:56:34.288Z,10.30
2018-04-26T05:59:00.449Z,10.40
2018-04-26T06:01:26.641Z,10.40
2018-04-26T06:03:52.922Z,10.30
2018-04-26T06:06:19.050Z,10.10
2018-04-26T06:08:45.237Z,9.80
2018-04-26T06:11:11.386Z,9.50
2018-04-26T06:13:37.583Z,9.40
2018-04-26T06:16:03.821Z,9.20
2018-04-26T06:18:30.009Z,9.10
2018-04-26T06:20:56.912Z,9.10
2018-04-26T06:23:23.115Z,9.10
2018-04-26T06:25:49.282Z,9.10
2018-04-26T06:28:15.490Z,9.10
2018-04-26T06:30:41.665Z,9.20
2018-04-26T06:33:07.881Z,9.20
2018-04-26T06:35:34.089Z,9.30
2018-04-26T06:38:00.310Z,9.40
2018-04-26T06:40:26.503Z,9.40
2018-04-26T06:42:52.710Z,9.40
2018-04-26T06:45:18.922Z,9.40
2018-04-26T06:47:45.908Z,9.50
2018-04-26T06:50:12.177Z,9.60
2018-04-26T06:52:38.361Z,9.60
2018-04-26T06:55:04.580Z,9.70
2018-04-26T06:57:30.763Z,9.70
2018-04-26T06:59:57.700Z,9.90
2018-04-26T07:02:23.880Z,9.90
2018-04-26T07:04:50.078Z,10.10
2018-04-26T07:07:16.236Z,10.20
2018-04-26T07:09:42.425Z,10.40
2018-04-26T07:12:09.344Z,10.40
2018-04-26T07:14:35.516Z,10.40
2018-04-26T07:17:01.718Z,10.40
2018-04-26T07:19:28.638Z,10.30
2018-04-26T07:21:54.864Z,10.30
2018-04-26T07:24:21.054Z,10.30
2018-04-26T07:26:47.237Z,10.30
2018-04-26T07:29:14.237Z,10.60
2018-04-26T07:31:40.416Z,10.60
2018-04-26T07:34:06.741Z,10.80
2018-04-26T07:36:32.910Z,10.90
2018-04-26T07:38:59.117Z,11.00
2018-04-26T07:41:25.311Z,11.20
2018-04-26T07:43:51.493Z,11.30
2018-04-26T07:46:17.692Z,11.40
2018-04-26T07:48:44.628Z,11.30
2018-04-26T07:51:10.820Z,11.30
2018-04-26T07:53:36.984Z,11.30
2018-04-26T07:56:03.920Z,11.20
2018-04-26T07:58:30.882Z,11.10
2018-04-26T08:00:57.050Z,11.10
2018-04-26T08:03:23.204Z,11.10
2018-04-26T08:05:49.391Z,11.30
2018-04-26T08:08:15.548Z,11.50
2018-04-26T08:10:41.769Z,11.70
2018-04-26T08:13:08.006Z,11.90
2018-04-26T08:15:34.229Z,12.10
2018-04-26T08:18:00.406Z,12.10
2018-04-26T08:20:26.600Z,12.20
2018-04-26T08:22:53.521Z,12.20
2018-04-26T08:25:19.685Z,12.20
2018-04-26T08:27:45.864Z,12.20
2018-04-26T08:30:12.065Z,12.40
2018-04-26T08:32:38.291Z,12.50
2018-04-26T08:35:04.481Z,12.40
2018-04-26T08:37:30.669Z,12.30
2018-04-26T08:39:56.838Z,12.30
2018-04-26T08:42:23.042Z,12.50
2018-04-26T08:44:49.219Z,12.70
2018-04-26T08:47:15.396Z,12.80
2018-04-26T08:49:41.579Z,12.60
2018-04-26T08:52:07.793Z,12.60
2018-04-26T08:54:33.956Z,12.60
2018-04-26T08:57:00.162Z,12.70
2018-04-26T08:59:26.324Z,12.90
2018-04-26T09:01:52.737Z,13.10
2018-04-26T09:04:18.910Z,13.20
2018-04-26T09:06:45.142Z,13.30
2018-04-26T09:09:11.280Z,13.30
2018-04-26T09:11:37.441Z,13.20
2018-04-26T09:14:03.643Z,13.10
2018-04-26T09:16:29.802Z,13.10
2018-04-26T09:18:55.995Z,13.10
2018-04-26T09:21:22.149Z,13.20
2018-04-26T09:23:48.339Z,13.10
2018-04-26T09:26:14.512Z,13.20
2018-04-26T09:28:40.706Z,13.30
2018-04-26T09:31:06.892Z,13.30
2018-04-26T09:33:33.879Z,13.10
2018-04-26T09:36:00.057Z,13.10
2018-04-26T09:38:26.253Z,12.80
2018-04-26T09:40:52.423Z,12.50
2018-04-26T09:43:19.377Z,12.80
2018-04-26T09:45:46.318Z,13.00
2018-04-26T09:48:12.493Z,13.00
2018-04-26T09:50:38.641Z,13.30
2018-04-26T09:53:04.890Z,13.30
2018-04-26T09:55:31.890Z,13.70
2018-04-26T09:57:57.996Z,13.70
2018-04-26T10:00:27.083Z,13.50
2018-04-26T10:02:53.320Z,13.30
2018-04-26T10:05:19.520Z,13.10
2018-04-26T10:07:46.472Z,11.90
2018-04-26T10:10:12.671Z,11.90
2018-04-26T10:12:38.838Z,11.50
2018-04-26T10:15:05.092Z,11.10
2018-04-26T10:17:31.309Z,10.70
2018-04-26T10:19:57.485Z,10.20
2018-04-26T10:22:23.679Z,10.10
2018-04-26T10:24:49.877Z,9.90
2018-04-26T10:27:16.030Z,9.50
2018-04-26T10:29:42.248Z,9.50
2018-04-26T10:32:08.413Z,9.70
2018-04-26T10:34:34.606Z,9.80
2018-04-26T10:37:00.776Z,10.00
2018-04-26T10:39:26.962Z,10.30
2018-04-26T10:41:53.130Z,10.50
2018-04-26T10:44:20.071Z,10.80
2018-04-26T10:46:46.244Z,10.80
2018-04-26T10:49:12.424Z,11.00
2018-04-26T10:51:39.389Z,11.60
2018-04-26T10:54:05.560Z,11.50
2018-04-26T10:56:31.755Z,11.90
2018-04-26T10:58:57.937Z,12.00
2018-04-26T11:01:24.149Z,12.10
2018-04-26T11:03:50.313Z,11.90
2018-04-26T11:06:16.504Z,11.60
2018-04-26T11:08:42.660Z,11.30
2018-04-26T11:11:08.864Z,10.90
2018-04-26T11:13:35.057Z,10.50
2018-04-26T11:16:01.272Z,10.10
2018-04-26T11:18:27.449Z,9.50
2018-04-26T11:20:53.656Z,9.00
2018-04-26T11:23:19.825Z,9.10
2018-04-26T11:25:46.050Z,9.20
2018-04-26T11:28:12.233Z,9.50
2018-04-26T11:30:38.394Z,9.90
2018-04-26T11:33:04.600Z,10.10
2018-04-26T11:35:30.786Z,10.10
2018-04-26T11:37:56.965Z,10.20
2018-04-26T11:40:23.134Z,10.20
2018-04-26T11:42:49.365Z,10.50
2018-04-26T11:45:15.565Z,10.70
2018-04-26T11:47:42.480Z,11.50
2018-04-26T11:50:08.664Z,11.50
2018-04-26T11:52:34.929Z,11.70
2018-04-26T11:55:01.141Z,11.80
2018-04-26T11:57:27.341Z,11.90
2018-04-26T11:59:53.513Z,11.80
2018-04-26T12:02:19.766Z,11.60
2018-04-26T12:04:46.707Z,11.00
2018-04-26T12:07:13.633Z,10.90
2018-04-26T12:09:39.813Z,10.90
2018-04-26T12:12:06.686Z,10.70
2018-04-26T12:14:32.902Z,10.80
2018-04-26T12:16:59.081Z,10.80
2018-04-26T12:19:25.249Z,11.10
2018-04-26T12:21:51.423Z,11.50
2018-04-26T12:24:19.148Z,11.90
2018-04-26T12:26:45.305Z,11.80
2018-04-26T12:29:11.511Z,11.90
2018-04-26T12:31:37.711Z,12.10
2018-04-26T12:34:03.929Z,12.30
2018-04-26T12:36:30.424Z,12.60
2018-04-26T12:38:56.912Z,12.60
2018-04-26T12:41:23.108Z,12.50
2018-04-26T12:43:49.309Z,12.20
2018-04-26T12:46:16.265Z,11.90
2018-04-26T12:48:43.481Z,11.80
2018-04-26T12:51:09.666Z,11.70
2018-04-26T12:53:35.916Z,11.60
2018-04-26T12:56:02.086Z,11.20
2018-04-26T12:58:28.393Z,10.90
2018-04-26T13:00:54.642Z,10.80
2018-04-26T13:03:20.838Z,10.70
2018-04-26T13:05:47.034Z,10.80
2018-04-26T13:08:13.209Z,11.00
2018-04-26T13:10:39.433Z,11.30
2018-04-26T13:13:05.708Z,11.50
2018-04-26T13:15:31.956Z,11.70
2018-04-26T13:17:58.141Z,11.90
2018-04-26T13:20:25.108Z,12.10
2018-04-26T13:22:51.316Z,12.10
2018-04-26T13:25:17.499Z,12.00
2018-04-26T13:27:43.674Z,11.80
2018-04-26T13:30:10.648Z,11.30
2018-04-26T13:32:36.857Z,11.30
2018-04-26T13:35:03.047Z,11.20
2018-04-26T13:37:29.228Z,11.30
2018-04-26T13:39:55.402Z,11.40
2018-04-26T13:42:21.590Z,11.70
2018-04-26T13:44:47.812Z,12.00
2018-04-26T13:47:14.008Z,12.10
2018-04-26T13:49:40.282Z,12.40
2018-04-26T13:52:06.492Z,12.70
2018-04-26T13:54:32.709Z,12.90
2018-04-26T13:56:58.897Z,12.90
2018-04-26T13:59:25.077Z,13.00
2018-04-26T14:01:51.551Z,13.10
2018-04-26T14:04:17.801Z,13.10
2018-04-26T14:06:44.015Z,12.90
2018-04-26T14:09:10.201Z,12.40
2018-04-26T14:11:36.411Z,12.10
2018-04-26T14:14:02.633Z,11.70
2018-04-26T14:16:28.819Z,11.70
2018-04-26T14:18:55.014Z,11.90
2018-04-26T14:21:21.214Z,12.40
2018-04-26T14:23:47.370Z,12.70
2018-04-26T14:26:13.564Z,13.00
2018-04-26T14:28:39.744Z,13.20
2018-04-26T14:31:05.894Z,13.20
2018-04-26T14:33:32.118Z,13.30
2018-04-26T14:35:59.054Z,13.40
2018-04-26T14:38:25.269Z,13.40
2018-04-26T14:40:51.497Z,13.40
2018-04-26T14:43:17.823Z,13.60
2018-04-26T14:45:44.043Z,13.80
2018-04-26T14:48:10.243Z,14.00
2018-04-26T14:50:36.465Z,13.90
2018-04-26T14:53:02.729Z,14.10
2018-04-26T14:55:28.941Z,14.00
2018-04-26T14:57:55.126Z,14.10
2018-04-26T15:00:21.298Z,14.30
2018-04-26T15:02:47.508Z,14.20
2018-04-26T15:05:13.763Z,14.20
2018-04-26T15:07:39.985Z,14.10
2018-04-26T15:10:06.202Z,14.10
2018-04-26T15:12:32.373Z,14.20
2018-04-26T15:14:59.380Z,14.10
2018-04-26T15:17:25.537Z,14.00
2018-04-26T15:19:51.831Z,13.90
2018-04-26T15:22:18.011Z,13.40
2018-04-26T15:24:44.212Z,12.50
2018-04-26T15:27:10.392Z,11.90
2018-04-26T15:29:36.586Z,11.60
2018-04-26T15:32:03.553Z,11.60
2018-04-26T15:34:29.753Z,11.60
2018-04-26T15:36:56.746Z,11.80
2018-04-26T15:39:22.927Z,11.80
2018-04-26T15:41:49.844Z,12.10
2018-04-26T15:44:16.081Z,12.10
2018-04-26T15:46:42.261Z,12.10
2018-04-26T15:49:08.454Z,12.10
2018-04-26T15:51:35.474Z,12.10
2018-04-26T15:54:13.757Z,12.00
2018-04-26T15:56:53.066Z,12.10
2018-04-26T15:59:31.404Z,12.10
2018-04-26T16:15:43.133Z,13.60
2018-04-26T16:18:27.725Z,13.40
2018-04-26T16:21:12.452Z,13.30
2018-04-26T16:23:57.130Z,13.30
2018-04-26T16:26:35.558Z,13.20
2018-04-26T16:29:20.005Z,13.50
2018-04-26T16:32:04.661Z,14.30
2018-04-26T16:34:49.833Z,15.10
2018-04-26T16:37:34.338Z,15.40
2018-04-26T16:40:00.535Z,15.20
2018-04-26T16:42:26.881Z,14.90
2018-04-26T16:44:53.055Z,14.60
2018-04-26T16:47:19.995Z,14.30
2018-04-26T16:49:46.166Z,14.30
2018-04-26T16:52:12.383Z,13.90
2018-04-26T16:54:38.602Z,13.70
2018-04-26T16:57:04.816Z,13.40
2018-04-26T16:59:31.757Z,13.30
2018-04-26T17:01:58.717Z,14.00
2018-04-26T17:04:24.931Z,14.00
2018-04-26T17:06:51.134Z,15.00
2018-04-26T17:09:17.334Z,16.20
2018-04-26T17:11:43.509Z,17.20
2018-04-26T17:14:10.454Z,17.90
2018-04-26T17:16:36.729Z,17.90
2018-04-26T17:19:02.920Z,18.10
2018-04-26T17:21:29.179Z,17.70
2018-04-26T17:23:55.414Z,17.20
2018-04-26T17:26:21.590Z,16.50
2018-04-26T17:28:47.773Z,15.80
2018-04-26T17:31:13.950Z,15.30
2018-04-26T17:33:40.157Z,15.00
2018-04-26T17:36:06.328Z,14.70
2018-04-26T17:38:32.537Z,14.40
2018-04-26T17:40:58.709Z,14.20
2018-04-26T17:43:25.307Z,13.90
2018-04-26T17:45:51.469Z,13.70
2018-04-26T17:48:17.665Z,13.50
2018-04-26T17:50:43.837Z,13.20
2018-04-26T17:53:10.160Z,13.20
2018-04-26T17:55:36.321Z,13.10
2018-04-26T17:58:02.531Z,13.10
2018-04-26T18:00:29.445Z,12.20
2018-04-26T18:02:55.645Z,12.20
2018-04-26T18:05:21.820Z,11.90
2018-04-26T18:07:47.984Z,11.70
2018-04-26T18:10:14.169Z,11.50
2018-04-26T18:12:40.360Z,11.20
2018-04-26T18:15:06.543Z,11.10
2018-04-26T18:17:33.445Z,11.00
2018-04-26T18:20:08.149Z,11.00
2018-04-26T18:22:26.139Z,11.00
2018-04-26T18:27:25.166Z,11.20
2018-04-26T18:29:52.145Z,11.30
2018-04-26T18:32:18.351Z,11.20
2018-04-26T18:34:44.529Z,11.20
2018-04-26T18:37:10.694Z,11.10
2018-04-26T18:39:36.915Z,10.90
2018-04-26T18:42:03.097Z,10.90
2018-04-26T18:44:29.515Z,10.90
2018-04-26T18:46:55.706Z,10.90
2018-04-26T18:49:21.900Z,10.80
2018-04-26T18:51:48.142Z,10.70
2018-04-26T18:54:14.335Z,10.60
2018-04-26T18:56:40.514Z,10.50
2018-04-26T18:59:06.739Z,10.50
2018-04-26T19:01:32.918Z,10.30
2018-04-26T19:03:59.137Z,10.30
2018-04-26T19:06:25.486Z,10.20
2018-04-26T19:08:51.756Z,10.20
2018-04-26T19:11:17.958Z,10.10
2018-04-26T19:13:44.147Z,10.10
2018-04-26T19:16:10.326Z,10.10
2018-04-26T19:18:36.614Z,10.00
2018-04-26T19:21:02.844Z,9.90
2018-04-26T19:23:28.962Z,9.90
2018-04-26T19:25:55.142Z,9.80
2018-04-26T19:28:22.058Z,9.70
2018-04-26T19:30:48.254Z,9.70
2018-04-26T19:33:14.432Z,9.70
2018-04-26T19:35:41.353Z,9.60
2018-04-26T19:38:07.603Z,9.60
2018-04-26T19:40:33.913Z,9.60
2018-04-26T19:43:00.346Z,9.60
2018-04-26T19:45:26.550Z,9.50
2018-04-26T19:47:52.750Z,9.50
2018-04-26T19:50:18.939Z,9.50
2018-04-26T19:52:45.853Z,9.40
2018-04-26T19:55:12.295Z,9.40
2018-04-26T19:57:38.517Z,9.40
2018-04-26T20:00:04.707Z,9.40
2018-04-26T20:02:30.883Z,9.30
2018-04-26T20:04:57.092Z,9.40
2018-04-26T20:07:23.252Z,9.40
2018-04-26T20:09:50.342Z,9.40
2018-04-26T20:12:16.505Z,9.30
2018-04-26T20:14:42.714Z,9.40
2018-04-26T20:17:08.884Z,9.40
2018-04-26T20:19:35.074Z,9.30
2018-04-26T20:22:19.008Z,9.30
2018-04-26T20:24:45.231Z,9.30
2018-04-26T20:27:11.442Z,9.30
2018-04-26T20:29:37.656Z,9.20
2018-04-26T20:32:03.837Z,9.20
2018-04-26T20:34:30.169Z,9.20
2018-04-26T20:36:57.560Z,9.10
2018-04-26T20:39:24.500Z,9.20
2018-04-26T20:41:55.233Z,9.10
2018-04-26T20:44:34.493Z,9.20
2018-04-26T20:47:00.825Z,9.20
2018-04-26T20:49:27.220Z,9.20
2018-04-26T20:51:53.406Z,9.10
2018-04-26T20:54:19.713Z,9.00
2018-04-26T20:56:46.193Z,9.00
2018-04-26T20:59:12.387Z,8.90
2018-04-26T21:01:38.714Z,8.90
2018-04-26T21:04:04.931Z,8.90
2018-04-26T21:06:31.453Z,8.90
2018-04-26T21:08:57.634Z,8.90
2018-04-26T21:11:24.534Z,8.80
2018-04-26T21:13:50.789Z,8.80
2018-04-26T21:16:16.970Z,8.90
2018-04-26T21:18:43.160Z,8.80
2018-04-26T21:21:09.382Z,8.80
2018-04-26T21:23:35.605Z,8.90
2018-04-26T21:26:01.804Z,8.80
2018-04-26T21:28:28.043Z,8.80
2018-04-26T21:30:54.285Z,8.90
2018-04-26T21:33:20.499Z,8.90
2018-04-26T21:35:46.734Z,8.90
2018-04-26T21:38:12.880Z,9.00
2018-04-26T21:40:39.091Z,9.00
2018-04-26T21:43:05.293Z,9.10
2018-04-26T21:45:31.493Z,9.10
2018-04-26T21:47:58.211Z,9.20
2018-04-26T21:50:30.558Z,9.20
2018-04-26T21:53:03.231Z,9.30
2018-04-26T21:55:35.599Z,9.30
2018-04-26T21:58:07.818Z,9.30
2018-04-26T22:00:39.985Z,9.40
2018-04-26T22:03:06.283Z,9.30
2018-04-26T22:05:33.432Z,9.40
2018-04-26T22:07:59.622Z,9.20
2018-04-26T22:10:26.162Z,9.20
2018-04-26T22:12:52.358Z,9.00
2018-04-26T22:15:18.559Z,9.00
2018-04-26T22:17:44.736Z,9.00
2018-04-26T22:20:11.502Z,9.00
2018-04-26T22:22:37.703Z,9.00
2018-04-26T22:25:03.941Z,8.90
2018-04-26T22:27:30.211Z,8.90
2018-04-26T22:29:56.414Z,8.90
2018-04-26T22:32:22.626Z,8.90
2018-04-26T22:34:49.183Z,8.90
2018-04-26T22:37:15.400Z,8.80
2018-04-26T22:39:41.570Z,8.70
2018-04-26T22:42:07.757Z,8.80
2018-04-26T22:44:33.956Z,8.70
2018-04-26T22:47:00.154Z,8.60
2018-04-26T22:49:27.079Z,8.50
2018-04-26T22:51:54.030Z,8.50
2018-04-26T22:54:20.200Z,8.50
2018-04-26T22:56:46.383Z,8.40
2018-04-26T22:59:12.551Z,8.40
2018-04-26T23:01:38.742Z,8.30
2018-04-26T23:04:05.661Z,8.20
2018-04-26T23:06:31.869Z,8.20
2018-04-26T23:08:58.042Z,8.20
2018-04-26T23:11:24.972Z,8.10
2018-04-26T23:13:51.165Z,8.10
2018-04-26T23:16:17.469Z,8.20
2018-04-26T23:18:43.639Z,8.20
2018-04-26T23:21:09.829Z,8.10
2018-04-26T23:23:36.109Z,8.10
2018-04-26T23:26:02.308Z,8.10
2018-04-26T23:28:28.473Z,8.10
2018-04-26T23:30:55.397Z,8.00
2018-04-26T23:33:21.606Z,8.00
2018-04-26T23:35:48.171Z,8.10
2018-04-26T23:38:14.369Z,8.10
2018-04-26T23:40:40.550Z,8.00
2018-04-26T23:43:06.758Z,8.00
2018-04-26T23:45:33.685Z,7.90
2018-04-26T23:47:59.889Z,7.90
2018-04-26T23:50:26.065Z,7.90
2018-04-26T23:52:53.146Z,7.80
2018-04-26T23:55:19.323Z,7.80
2018-04-26T23:57:45.518Z,7.80
